Time;durP1;ratioP1;P1;durP2;ratioP2;P2;SDS_P1;SDS_P2;PMS_P1;PMS_P2;Temp;Humidity;BMP_temperature;BMP_pressure;BME280_temperature;BME280_humidity;BME280_pressure;Samples;Min_cycle;Max_cycle;Signal;HPM_P1;HPM_P2
2022/12/28 00:01:07;;;;;;;37.50;30.17;;;13.10;91.20;;;;;;5094903;28;20036;-79
2022/12/28 00:03:33;;;;;;;42.97;30.23;;;13.10;91.20;;;;;;5094652;28;20032;-78
2022/12/28 00:05:59;;;;;;;39.95;28.80;;;13.10;91.30;;;;;;5076266;28;20031;-77
2022/12/28 00:08:24;;;;;;;39.08;27.90;;;13.10;91.30;;;;;;5094046;28;20491;-79
2022/12/28 00:10:50;;;;;;;37.75;29.52;;;13.00;91.30;;;;;;5076332;28;20044;-79
2022/12/28 00:13:16;;;;;;;34.83;27.75;;;13.00;91.30;;;;;;5094220;28;20116;-78
2022/12/28 00:15:41;;;;;;;34.00;26.25;;;13.00;91.30;;;;;;5094300;28;20089;-79
2022/12/28 00:18:07;;;;;;;36.15;27.25;;;12.90;91.30;;;;;;5094515;28;20476;-80
2022/12/28 00:20:33;;;;;;;36.55;27.23;;;12.90;91.40;;;;;;5094244;28;20421;-78
2022/12/28 00:22:58;;;;;;;36.22;25.58;;;12.80;91.30;;;;;;5094270;28;20117;-78
2022/12/28 00:25:24;;;;;;;37.95;26.63;;;12.80;91.30;;;;;;5094370;28;20036;-79
2022/12/28 00:27:50;;;;;;;36.25;26.17;;;12.80;91.50;;;;;;5075612;28;20132;-79
2022/12/28 00:30:16;;;;;;;33.40;25.63;;;12.70;91.40;;;;;;5093849;28;20392;-78
2022/12/28 00:32:41;;;;;;;34.67;27.15;;;12.70;91.30;;;;;;5093880;28;20043;-79
2022/12/28 00:35:07;;;;;;;35.75;26.00;;;12.70;91.40;;;;;;5075453;28;20046;-78
2022/12/28 00:37:33;;;;;;;37.25;26.77;;;12.70;91.50;;;;;;5075174;28;20024;-79
2022/12/28 00:39:58;;;;;;;32.72;24.52;;;12.70;91.50;;;;;;5075321;28;20039;-79
2022/12/28 00:42:24;;;;;;;30.60;25.70;;;12.80;91.60;;;;;;5075321;28;20024;-78
2022/12/28 00:44:50;;;;;;;34.17;25.02;;;12.70;91.50;;;;;;5093777;28;20071;-79
2022/12/28 00:47:15;;;;;;;36.17;27.00;;;12.70;91.50;;;;;;5093562;28;20043;-77
2022/12/28 00:49:41;;;;;;;38.58;26.35;;;12.70;91.50;;;;;;5075495;28;20044;-79
2022/12/28 00:52:07;;;;;;;36.60;26.65;;;12.70;91.50;;;;;;5075451;28;20035;-79
2022/12/28 00:54:32;;;;;;;39.58;26.20;;;12.60;91.40;;;;;;5093486;28;20036;-79
2022/12/28 00:56:58;;;;;;;31.92;25.52;;;12.60;91.60;;;;;;5093693;28;20036;-79
2022/12/28 00:59:24;;;;;;;35.30;26.42;;;12.60;91.50;;;;;;5093234;28;20500;-79
2022/12/28 01:01:49;;;;;;;30.85;25.10;;;12.50;91.50;;;;;;5075188;28;20028;-79
2022/12/28 01:04:15;;;;;;;33.97;26.02;;;12.50;91.60;;;;;;5075296;28;20177;-78
2022/12/28 01:06:41;;;;;;;35.58;26.75;;;12.50;91.60;;;;;;5093459;28;20038;-79
2022/12/28 01:09:07;;;;;;;32.80;25.10;;;12.50;91.70;;;;;;5074288;28;20068;-78
2022/12/28 01:11:32;;;;;;;33.08;24.88;;;12.50;91.60;;;;;;5093412;28;20044;-79
2022/12/28 01:14:00;;;;;;;34.08;25.90;;;12.50;91.80;;;;;;5093155;28;20060;-78
2022/12/28 01:16:31;;;;;;;40.60;27.25;;;12.40;91.70;;;;;;5074675;28;20135;-78
2022/12/28 01:18:59;;;;;;;32.15;25.45;;;12.50;91.80;;;;;;5093053;28;20054;-78
2022/12/28 01:21:31;;;;;;;34.75;25.08;;;12.50;91.80;;;;;;5074537;28;20036;-78
2022/12/28 01:24:00;;;;;;;31.63;25.77;;;12.40;91.70;;;;;;5074908;28;20032;-78
2022/12/28 01:26:26;;;;;;;32.95;25.90;;;12.40;91.70;;;;;;5074944;28;20081;-79
2022/12/28 01:28:52;;;;;;;33.60;26.42;;;12.40;91.80;;;;;;5074307;28;20036;-78
2022/12/28 01:31:19;;;;;;;35.72;26.02;;;12.40;91.90;;;;;;5074607;28;20411;-78
2022/12/28 01:33:45;;;;;;;30.38;24.60;;;12.30;91.80;;;;;;5092823;28;20032;-79
2022/12/28 01:36:20;;;;;;;34.10;25.67;;;12.30;91.80;;;;;;5092796;28;20139;-78
2022/12/28 01:38:47;;;;;;;32.92;25.75;;;12.30;91.90;;;;;;5074516;28;20039;-78
2022/12/28 01:41:16;;;;;;;36.20;25.92;;;12.30;91.90;;;;;;5092648;28;20032;-78
2022/12/28 01:43:45;;;;;;;30.38;23.98;;;12.30;91.90;;;;;;5092724;28;20035;-79
2022/12/28 01:46:17;;;;;;;29.23;23.60;;;12.30;91.90;;;;;;5074660;28;20572;-77
2022/12/28 01:48:52;;;;;;;30.13;24.77;;;12.20;91.90;;;;;;5074574;28;20165;-78
2022/12/28 01:51:19;;;;;;;31.48;23.25;;;12.20;92.00;;;;;;5080104;28;20047;-77
2022/12/28 01:53:47;;;;;;;31.88;24.52;;;12.20;92.00;;;;;;5102528;28;20028;-78
2022/12/28 01:56:13;;;;;;;28.80;22.92;;;12.20;92.10;;;;;;5098477;28;20495;-78
2022/12/28 01:58:39;;;;;;;30.60;23.98;;;12.20;92.00;;;;;;5096478;28;20040;-77
2022/12/28 02:01:05;;;;;;;28.35;22.38;;;12.20;92.00;;;;;;5092718;28;20036;-78
2022/12/28 02:03:33;;;;;;;31.33;23.08;;;12.20;92.00;;;;;;5074001;28;20506;-78
2022/12/28 02:06:04;;;;;;;27.88;23.00;;;12.20;91.90;;;;;;5092444;28;20055;-78
2022/12/28 02:08:48;;;;;;;28.13;23.67;;;12.20;92.10;;;;;;5073601;28;20043;-78
2022/12/28 02:11:17;;;;;;;33.38;23.63;;;12.20;92.10;;;;;;5074008;28;20538;-78
2022/12/28 02:13:45;;;;;;;30.88;24.00;;;12.30;92.00;;;;;;5092232;28;20038;-77
2022/12/28 02:16:11;;;;;;;29.13;23.40;;;12.30;92.00;;;;;;5092123;28;20392;-78
2022/12/28 02:18:39;;;;;;;28.67;23.05;;;12.30;92.10;;;;;;5092281;28;20032;-79
2022/12/28 02:21:23;;;;;;;26.67;22.60;;;12.30;92.00;;;;;;5093837;28;20027;-78
2022/12/28 02:24:15;;;;;;;29.40;22.70;;;12.40;92.10;;;;;;5096414;28;20028;-78
2022/12/28 02:26:50;;;;;;;30.38;24.08;;;12.40;92.10;;;;;;5096151;28;20044;-78
2022/12/28 02:29:41;;;;;;;35.95;24.58;;;12.40;91.90;;;;;;5077843;28;20036;-78
2022/12/28 02:32:07;;;;;;;31.08;23.08;;;12.40;92.00;;;;;;5078126;28;20123;-78
2022/12/28 02:35:16;;;;;;;28.35;23.13;;;12.40;92.00;;;;;;5096037;28;20162;-78
2022/12/28 02:37:47;;;;;;;27.75;22.13;;;12.40;92.00;;;;;;5046829;28;20040;-78
2022/12/28 02:40:36;;;;;;;29.83;22.05;;;12.50;92.00;;;;;;5078059;28;20152;-78
2022/12/28 02:43:02;;;;;;;27.33;21.58;;;12.50;91.90;;;;;;5096178;28;20041;-79
2022/12/28 02:51:13;;;;;;;27.60;21.60;;;12.60;91.90;;;;;;5096154;28;20072;-78
2022/12/28 02:54:00;;;;;;;28.95;22.17;;;12.60;91.80;;;;;;5095847;28;20036;-78
2022/12/28 02:57:03;;;;;;;27.17;22.25;;;12.70;91.90;;;;;;5095580;28;20108;-79
2022/12/28 02:59:34;;;;;;;27.02;21.42;;;12.70;91.90;;;;;;5091630;28;20036;-78
2022/12/28 03:02:28;;;;;;;27.95;21.23;;;12.70;91.80;;;;;;5095822;28;20071;-78
2022/12/28 03:05:05;;;;;;;26.27;22.10;;;12.70;91.70;;;;;;5095223;28;20032;-79
2022/12/28 03:10:43;;;;;;;29.40;21.88;;;12.70;91.70;;;;;;5095639;28;20050;-78
2022/12/28 03:16:05;;;;;;;26.75;21.70;;;12.70;91.60;;;;;;5095890;28;20039;-78
2022/12/28 03:32:35;;;;;;;29.35;23.30;;;12.70;91.50;;;;;;5094883;28;20039;-79
2022/12/28 03:35:01;;;;;;;27.73;21.98;;;12.70;91.40;;;;;;5077120;28;20506;-80
2022/12/28 03:37:39;;;;;;;27.65;21.45;;;12.80;91.50;;;;;;5095060;28;20111;-78
2022/12/28 03:40:43;;;;;;;33.03;23.80;;;12.70;91.40;;;;;;5094888;28;20051;-77
2022/12/28 03:46:16;;;;;;;30.65;21.65;;;12.70;91.50;;;;;;5094973;28;20038;-78
2022/12/28 03:48:43;;;;;;;27.73;22.60;;;12.60;91.50;;;;;;5094412;28;20089;-78
2022/12/28 03:51:12;;;;;;;27.35;22.60;;;12.60;91.50;;;;;;5076155;28;20091;-78
2022/12/28 03:53:44;;;;;;;25.85;21.58;;;12.50;91.70;;;;;;5094395;28;20108;-77
2022/12/28 03:56:17;;;;;;;27.60;22.10;;;12.50;91.50;;;;;;5076308;28;20036;-78
2022/12/28 03:58:43;;;;;;;29.35;22.67;;;12.50;91.50;;;;;;5094488;28;20078;-78
2022/12/28 04:01:09;;;;;;;28.50;23.00;;;12.40;91.50;;;;;;5076436;28;20024;-79
2022/12/28 04:03:34;;;;;;;27.63;22.08;;;12.50;91.60;;;;;;5076123;28;20043;-78
2022/12/28 04:06:00;;;;;;;30.40;22.42;;;12.40;91.50;;;;;;5094380;28;20036;-79
2022/12/28 04:08:27;;;;;;;28.50;23.23;;;12.40;91.60;;;;;;5094610;28;20032;-78
2022/12/28 04:10:53;;;;;;;26.33;21.65;;;12.40;91.60;;;;;;5094153;28;20491;-78
2022/12/28 04:13:18;;;;;;;27.23;22.20;;;12.40;91.50;;;;;;5075654;28;20032;-78
2022/12/28 04:15:54;;;;;;;27.05;21.48;;;12.40;91.60;;;;;;5094237;28;20028;-79
2022/12/28 04:18:20;;;;;;;25.75;21.15;;;12.40;91.50;;;;;;5075856;28;20024;-78
2022/12/28 04:20:46;;;;;;;32.55;22.10;;;12.50;91.60;;;;;;5093717;28;20032;-78
2022/12/28 04:23:11;;;;;;;28.10;21.50;;;12.40;91.50;;;;;;5076034;28;20407;-78
2022/12/28 04:25:37;;;;;;;28.27;22.38;;;12.50;91.50;;;;;;5093794;28;20142;-78
2022/12/28 04:28:02;;;;;;;27.50;22.10;;;12.50;91.50;;;;;;5093387;28;20044;-80
2022/12/28 04:30:28;;;;;;;28.92;23.00;;;12.50;91.50;;;;;;5093505;28;20130;-79
2022/12/28 04:32:54;;;;;;;27.25;21.88;;;12.50;91.40;;;;;;5094045;28;20115;-78
2022/12/28 04:35:20;;;;;;;25.67;20.80;;;12.50;91.50;;;;;;5093872;28;20456;-79
2022/12/28 04:37:46;;;;;;;25.67;22.13;;;12.50;91.50;;;;;;5093789;28;20103;-79
2022/12/28 04:40:12;;;;;;;31.60;22.27;;;12.60;91.50;;;;;;5093690;28;20036;-78
2022/12/28 04:42:37;;;;;;;30.20;23.42;;;12.60;91.50;;;;;;5075133;28;20116;-77
2022/12/28 04:45:03;;;;;;;29.00;23.45;;;12.60;91.40;;;;;;5093428;28;20065;-78
2022/12/28 04:47:29;;;;;;;27.15;23.65;;;12.60;91.50;;;;;;5093539;28;20047;-77
2022/12/28 04:49:55;;;;;;;27.92;23.45;;;12.70;91.50;;;;;;5096771;28;20476;-78
2022/12/28 04:52:21;;;;;;;29.30;23.13;;;12.60;91.50;;;;;;5096680;28;20365;-79
2022/12/28 04:54:47;;;;;;;29.13;23.98;;;12.60;91.40;;;;;;5084918;28;20051;-72
2022/12/28 04:57:13;;;;;;;29.83;23.50;;;12.60;91.40;;;;;;5100229;28;20024;-76
2022/12/28 04:59:39;;;;;;;29.13;24.20;;;12.50;91.30;;;;;;5095019;28;20097;-78
2022/12/28 05:02:05;;;;;;;29.85;24.60;;;12.50;91.40;;;;;;5093738;28;20376;-79
2022/12/28 05:04:31;;;;;;;31.23;24.63;;;12.40;91.40;;;;;;5074701;28;20058;-78
2022/12/28 05:06:57;;;;;;;31.00;24.85;;;12.40;91.40;;;;;;5092922;28;20468;-79
2022/12/28 05:09:23;;;;;;;32.13;26.25;;;12.40;91.50;;;;;;5074714;28;20063;-78
2022/12/28 05:11:49;;;;;;;32.38;25.05;;;12.30;91.40;;;;;;5092980;28;20028;-78
2022/12/28 05:14:14;;;;;;;33.75;26.20;;;12.30;91.50;;;;;;5074728;28;20043;-79
2022/12/28 05:16:40;;;;;;;32.00;26.60;;;12.30;91.50;;;;;;5093028;28;20028;-78
2022/12/28 05:19:06;;;;;;;36.88;26.52;;;12.30;91.70;;;;;;5093085;28;20028;-79
2022/12/28 05:21:32;;;;;;;35.03;27.17;;;12.30;91.70;;;;;;5092356;28;20026;-78
2022/12/28 05:23:58;;;;;;;32.47;27.40;;;12.20;91.60;;;;;;5074495;28;20427;-79
2022/12/28 05:26:26;;;;;;;39.60;27.92;;;12.20;91.70;;;;;;5092517;28;20465;-78
2022/12/28 05:28:52;;;;;;;37.95;27.73;;;12.20;91.70;;;;;;5092986;28;20032;-78
2022/12/28 05:31:20;;;;;;;31.63;27.15;;;12.20;91.70;;;;;;5074205;28;20502;-79
2022/12/28 05:33:46;;;;;;;35.20;27.52;;;12.20;91.70;;;;;;5074217;28;20044;-78
2022/12/28 05:36:15;;;;;;;31.40;26.08;;;12.20;91.80;;;;;;5092330;28;20028;-78
2022/12/28 05:38:41;;;;;;;32.97;26.95;;;12.20;91.90;;;;;;5074395;28;20085;-79
2022/12/28 05:41:19;;;;;;;31.95;26.35;;;12.20;91.90;;;;;;5074369;28;20028;-78
2022/12/28 05:43:45;;;;;;;35.17;27.95;;;12.20;92.00;;;;;;5092216;28;20043;-77
2022/12/28 05:46:24;;;;;;;36.50;28.33;;;12.20;91.80;;;;;;5074264;28;20036;-78
2022/12/28 05:48:49;;;;;;;35.78;27.60;;;12.20;91.80;;;;;;5074115;28;20094;-78
2022/12/28 05:51:18;;;;;;;32.80;26.92;;;12.30;91.80;;;;;;5092299;28;20032;-78
2022/12/28 05:53:44;;;;;;;32.92;26.05;;;12.30;91.80;;;;;;5074101;28;20026;-78
2022/12/28 05:56:21;;;;;;;32.55;26.50;;;12.20;91.70;;;;;;5073410;28;20036;-79
2022/12/28 05:58:56;;;;;;;31.35;25.80;;;12.30;91.80;;;;;;5092443;28;20028;-79
2022/12/28 06:01:25;;;;;;;34.58;26.33;;;12.30;91.80;;;;;;5092217;28;20055;-77
2022/12/28 06:03:58;;;;;;;35.97;25.77;;;12.30;91.70;;;;;;5073886;28;20089;-79
2022/12/28 06:06:24;;;;;;;;;;;12.40;91.80;;;;;;5074482;28;20032;-78
2022/12/28 06:08:50;;;;;;;34.83;26.77;;;12.50;92.00;;;;;;5092010;28;20206;-78
2022/12/28 06:11:21;;;;;;;33.88;25.75;;;12.50;91.80;;;;;;5092129;28;20484;-79
2022/12/28 06:13:48;;;;;;;32.53;25.75;;;12.50;91.70;;;;;;5092311;28;20075;-79
2022/12/28 06:16:17;;;;;;;31.55;25.10;;;12.50;91.60;;;;;;5092297;28;20047;-78
2022/12/28 06:18:44;;;;;;;36.15;25.88;;;12.60;91.60;;;;;;5073892;28;20070;-78
2022/12/28 06:21:13;;;;;;;30.10;24.98;;;12.60;91.50;;;;;;5073672;28;20476;-78
2022/12/28 06:23:40;;;;;;;30.45;24.55;;;12.60;91.50;;;;;;5073788;28;20070;-79
2022/12/28 06:26:07;;;;;;;34.55;26.17;;;12.60;91.50;;;;;;5073591;28;20036;-77
2022/12/28 06:28:36;;;;;;;29.83;23.95;;;12.50;91.50;;;;;;5073822;28;20040;-77
2022/12/28 06:31:06;;;;;;;34.22;23.98;;;12.50;91.50;;;;;;5091876;28;20040;-79
2022/12/28 06:33:32;;;;;;;33.92;24.35;;;12.50;91.50;;;;;;5091773;28;20039;-78
2022/12/28 06:35:58;;;;;;;34.80;24.05;;;12.50;91.50;;;;;;5091949;28;20039;-79
2022/12/28 06:38:25;;;;;;;30.83;23.20;;;12.60;91.50;;;;;;5091846;28;20037;-77
2022/12/28 06:40:51;;;;;;;31.40;22.92;;;12.60;91.40;;;;;;5092150;28;20110;-79
2022/12/28 06:43:17;;;;;;;29.38;22.63;;;12.60;91.40;;;;;;5091882;28;20518;-79
2022/12/28 06:45:53;;;;;;;28.85;23.80;;;12.70;91.40;;;;;;5073950;28;20029;-78
2022/12/28 06:48:18;;;;;;;35.10;23.38;;;12.70;91.40;;;;;;5073812;28;20341;-78
2022/12/28 06:50:56;;;;;;;29.13;23.10;;;12.80;91.30;;;;;;5091568;28;20213;-79
2022/12/28 06:53:24;;;;;;;29.00;22.70;;;12.80;91.30;;;;;;5073560;28;20086;-78
2022/12/28 06:55:57;;;;;;;27.13;21.83;;;12.80;91.30;;;;;;5073564;28;20052;-78
2022/12/28 06:58:25;;;;;;;30.17;22.17;;;12.90;91.20;;;;;;5073842;28;20067;-77
2022/12/28 07:00:51;;;;;;;25.30;20.33;;;12.80;91.20;;;;;;5074033;28;20120;-79
2022/12/28 07:03:17;;;;;;;26.98;21.17;;;12.80;91.20;;;;;;5073633;28;20036;-77
2022/12/28 07:05:43;;;;;;;23.02;17.70;;;12.80;91.20;;;;;;5073569;28;20109;-77
2022/12/28 07:08:09;;;;;;;19.13;16.50;;;12.90;91.10;;;;;;5075429;28;20484;-78
2022/12/28 07:10:36;;;;;;;19.55;15.57;;;12.80;91.10;;;;;;5076341;28;20043;-78
2022/12/28 07:13:02;;;;;;;23.33;14.82;;;12.80;91.10;;;;;;5076666;28;20032;-78
2022/12/28 07:15:28;;;;;;;20.63;15.40;;;12.70;90.90;;;;;;5095045;28;20032;-80
2022/12/28 07:17:54;;;;;;;22.90;14.68;;;12.80;91.00;;;;;;5094637;28;20073;-79
2022/12/28 07:20:20;;;;;;;18.17;14.07;;;12.80;90.90;;;;;;5076719;28;20392;-78
2022/12/28 07:22:45;;;;;;;19.17;14.10;;;12.80;90.80;;;;;;5095103;28;20491;-78
2022/12/28 07:25:11;;;;;;;23.05;13.52;;;12.90;91.00;;;;;;5076812;28;20132;-78
2022/12/28 07:27:37;;;;;;;17.38;12.57;;;12.90;90.80;;;;;;5076299;28;20123;-80
2022/12/28 07:30:03;;;;;;;17.25;13.23;;;12.90;90.90;;;;;;5094808;28;20067;-78
2022/12/28 07:32:29;;;;;;;19.40;14.73;;;12.90;90.60;;;;;;5094895;28;20099;-80
2022/12/28 07:34:54;;;;;;;22.23;13.75;;;12.90;90.50;;;;;;5076624;28;20131;-79
2022/12/28 07:37:20;;;;;;;19.77;12.98;;;12.90;90.50;;;;;;5094968;28;20029;-80
2022/12/28 07:39:46;;;;;;;17.80;13.48;;;12.90;90.70;;;;;;5094866;28;20036;-80
2022/12/28 07:42:11;;;;;;;20.30;14.30;;;13.00;90.60;;;;;;5076472;28;20058;-78
2022/12/28 07:44:40;;;;;;;22.85;14.10;;;13.10;90.50;;;;;;5094194;28;20041;-79
2022/12/28 07:47:07;;;;;;;20.95;14.48;;;13.20;90.50;;;;;;5076381;28;20034;-79
2022/12/28 07:49:33;;;;;;;19.73;14.18;;;13.20;90.30;;;;;;5076002;28;20113;-79
2022/12/28 07:51:58;;;;;;;22.25;14.90;;;13.30;90.30;;;;;;5094427;28;20437;-79
2022/12/28 07:54:24;;;;;;;23.35;14.68;;;13.40;90.40;;;;;;5094391;28;20043;-79
2022/12/28 07:56:50;;;;;;;24.60;15.93;;;13.40;90.10;;;;;;5094442;28;20039;-79
2022/12/28 07:59:16;;;;;;;21.48;15.88;;;13.50;90.00;;;;;;5094507;28;20036;-78
2022/12/28 08:01:41;;;;;;;20.50;15.20;;;13.50;90.00;;;;;;5094809;28;20514;-79
2022/12/28 08:04:11;;;;;;;21.98;15.95;;;13.50;90.00;;;;;;5094819;28;20114;-78
2022/12/28 08:06:39;;;;;;;21.95;16.08;;;13.60;90.10;;;;;;5076293;28;20032;-78
2022/12/28 08:09:07;;;;;;;26.63;16.05;;;13.60;90.10;;;;;;5075884;28;20463;-78
2022/12/28 08:11:35;;;;;;;22.63;15.90;;;13.70;89.70;;;;;;5075599;28;20563;-79
2022/12/28 08:14:01;;;;;;;21.13;16.02;;;13.80;89.90;;;;;;5076249;28;20107;-80
2022/12/28 08:16:30;;;;;;;21.02;15.52;;;13.80;89.70;;;;;;5094577;28;20039;-78
2022/12/28 08:18:55;;;;;;;22.60;16.50;;;13.80;89.80;;;;;;5093483;28;20028;-78
2022/12/28 08:21:30;;;;;;;26.58;16.45;;;13.90;89.70;;;;;;5075655;28;20105;-79
2022/12/28 08:23:56;;;;;;;26.52;17.02;;;13.90;89.10;;;;;;5093897;28;20108;-78
2022/12/28 08:26:29;;;;;;;24.02;17.17;;;13.90;89.50;;;;;;5093738;28;20468;-80
2022/12/28 08:28:57;;;;;;;36.10;17.70;;;13.90;88.90;;;;;;5075308;28;20071;-80
2022/12/28 08:31:29;;;;;;;33.78;18.70;;;13.90;89.40;;;;;;5075143;28;20278;-78
2022/12/28 08:33:58;;;;;;;;;;;13.90;89.10;;;;;;5094104;28;20056;-79
2022/12/28 08:36:24;;;;;;;23.58;16.50;;;14.00;89.50;;;;;;5093954;28;20375;-81
2022/12/28 08:38:50;;;;;;;28.73;17.83;;;13.90;89.40;;;;;;5075188;28;20488;-78
2022/12/28 08:41:21;;;;;;;34.50;18.38;;;14.00;89.30;;;;;;5075099;28;20032;-80
2022/12/28 08:43:49;;;;;;;28.25;19.20;;;14.00;88.70;;;;;;5075209;28;20032;-78
2022/12/28 08:46:19;;;;;;;22.80;18.10;;;14.00;89.20;;;;;;5093407;28;20482;-78
2022/12/28 08:48:46;;;;;;;25.58;16.90;;;14.00;89.30;;;;;;5093570;28;20032;-79
2022/12/28 08:51:16;;;;;;;26.77;18.02;;;14.10;89.40;;;;;;5076509;28;20040;-79
2022/12/28 08:53:42;;;;;;;29.48;18.35;;;14.10;89.30;;;;;;5094501;28;20063;-80
2022/12/28 08:56:17;;;;;;;23.83;16.80;;;14.20;89.20;;;;;;5075844;28;20028;-79
2022/12/28 08:58:44;;;;;;;29.08;18.15;;;14.30;88.40;;;;;;5101554;28;20061;-79
2022/12/28 09:01:12;;;;;;;27.75;18.60;;;14.30;89.00;;;;;;5103858;28;20066;-79
2022/12/28 09:03:40;;;;;;;25.98;18.13;;;14.40;88.90;;;;;;5085749;28;20091;-80
2022/12/28 09:06:12;;;;;;;24.75;17.25;;;14.40;88.80;;;;;;5075806;28;20040;-79
2022/12/28 09:08:39;;;;;;;22.42;16.77;;;14.40;88.50;;;;;;5093234;28;20086;-78
2022/12/28 09:11:08;;;;;;;25.95;17.80;;;14.50;88.40;;;;;;5093370;28;20105;-79
2022/12/28 09:13:34;;;;;;;28.40;18.17;;;14.50;88.40;;;;;;5092869;28;20026;-79
2022/12/28 09:16:02;;;;;;;29.17;17.90;;;14.60;88.00;;;;;;5093064;28;20070;-77
2022/12/28 09:18:28;;;;;;;23.25;17.05;;;14.60;87.90;;;;;;5092905;28;20484;-79
2022/12/28 09:20:54;;;;;;;25.40;17.40;;;14.70;88.30;;;;;;5074800;28;20088;-79
2022/12/28 09:23:21;;;;;;;27.42;17.45;;;14.80;87.70;;;;;;5093006;28;20036;-79
2022/12/28 09:25:47;;;;;;;27.80;17.73;;;14.90;87.60;;;;;;5093173;28;20036;-79
2022/12/28 09:28:13;;;;;;;28.95;17.70;;;14.90;87.40;;;;;;5074229;28;20131;-80
2022/12/28 09:30:38;;;;;;;30.33;17.55;;;15.00;87.30;;;;;;5091647;28;20051;-79
2022/12/28 09:35:48;;;;;;;24.10;16.35;;;15.20;86.60;;;;;;5093064;28;20150;-78
2022/12/28 09:38:14;;;;;;;23.08;16.02;;;15.30;86.70;;;;;;5074326;28;20082;-79
2022/12/28 09:40:40;;;;;;;28.15;16.83;;;15.40;86.50;;;;;;5073842;28;20043;-79
2022/12/28 09:43:10;;;;;;;30.90;15.63;;;15.40;86.20;;;;;;5074263;28;20084;-80
2022/12/28 09:45:36;;;;;;;28.50;16.25;;;15.50;86.00;;;;;;5073956;28;20078;-79
2022/12/28 09:48:09;;;;;;;26.40;15.63;;;15.50;85.60;;;;;;5074448;28;20127;-78
2022/12/28 09:50:35;;;;;;;21.90;12.57;;;15.60;85.30;;;;;;5092672;28;20214;-80
2022/12/28 09:53:19;;;;;;;26.75;17.25;;;15.60;85.10;;;;;;5074362;28;20032;-78
2022/12/28 09:56:03;;;;;;;23.30;15.18;;;15.70;85.50;;;;;;5073920;28;20059;-78
2022/12/28 09:58:31;;;;;;;26.13;15.73;;;15.80;85.40;;;;;;5092274;28;20123;-79
2022/12/28 10:00:59;;;;;;;26.63;16.05;;;15.80;84.30;;;;;;5073599;28;20506;-78
2022/12/28 10:03:26;;;;;;;23.42;16.45;;;15.80;84.20;;;;;;5092020;28;20028;-79
2022/12/28 10:05:54;;;;;;;23.52;16.25;;;15.90;84.10;;;;;;5073787;28;20032;-79
2022/12/28 10:08:22;;;;;;;22.95;15.32;;;16.00;84.20;;;;;;5073718;28;20020;-79
2022/12/28 10:10:49;;;;;;;26.02;16.17;;;16.00;84.00;;;;;;5073583;28;20517;-78
2022/12/28 10:13:23;;;;;;;26.25;16.27;;;16.10;83.90;;;;;;5092083;28;20032;-79
2022/12/28 10:15:50;;;;;;;22.20;14.23;;;16.20;84.30;;;;;;5092254;28;20439;-80
2022/12/28 10:18:22;;;;;;;24.95;14.60;;;16.20;83.50;;;;;;5073917;28;20036;-78
2022/12/28 10:20:48;;;;;;;18.40;12.77;;;16.30;83.30;;;;;;5073770;28;20043;-79
2022/12/28 10:23:19;;;;;;;26.40;13.30;;;16.30;83.10;;;;;;5092039;28;20047;-79
2022/12/28 10:25:47;;;;;;;22.30;13.30;;;16.30;83.00;;;;;;5073716;28;20032;-80
2022/12/28 10:28:15;;;;;;;20.40;11.80;;;16.40;82.90;;;;;;5073848;28;20396;-80
2022/12/28 10:30:46;;;;;;;23.02;12.48;;;16.40;82.80;;;;;;5091968;28;20193;-80
2022/12/28 10:33:18;;;;;;;23.88;12.13;;;16.50;82.50;;;;;;5092345;28;20034;-78
2022/12/28 10:35:53;;;;;;;25.35;11.10;;;16.60;82.40;;;;;;5092167;28;20038;-80
2022/12/28 10:38:23;;;;;;;29.20;12.65;;;16.60;82.20;;;;;;5092197;28;20036;-79
2022/12/28 10:41:05;;;;;;;25.40;10.95;;;16.70;82.20;;;;;;5074086;28;20099;-80
2022/12/28 10:43:34;;;;;;;19.85;10.68;;;16.70;82.40;;;;;;5077991;28;20060;-80
2022/12/28 10:46:02;;;;;;;22.65;11.15;;;16.80;82.10;;;;;;5077781;28;20479;-81
2022/12/28 10:48:31;;;;;;;17.70;10.27;;;16.90;82.20;;;;;;5077604;28;20070;-78
2022/12/28 10:51:08;;;;;;;18.20;10.68;;;17.00;82.10;;;;;;5095857;28;20048;-79
2022/12/28 10:53:50;;;;;;;20.17;10.00;;;17.00;81.90;;;;;;5095631;28;20058;-79
2022/12/28 10:56:42;;;;;;;19.33;11.18;;;17.10;81.70;;;;;;5101611;28;20028;-79
2022/12/28 10:59:11;;;;;;;18.67;11.60;;;17.10;81.70;;;;;;5090475;28;20044;-79
2022/12/28 11:01:38;;;;;;;17.60;10.15;;;17.10;81.70;;;;;;5077287;28;20025;-80
2022/12/28 11:04:17;;;;;;;23.35;11.32;;;17.10;81.70;;;;;;5095821;28;20036;-80
2022/12/28 11:06:59;;;;;;;21.70;11.25;;;17.10;81.70;;;;;;5077561;28;20028;-80
2022/12/28 11:09:27;;;;;;;27.45;10.23;;;17.20;81.80;;;;;;5096030;28;20040;-80
2022/12/28 11:12:15;;;;;;;23.17;10.45;;;17.20;81.90;;;;;;5077089;28;20048;-79
2022/12/28 11:14:40;;;;;;;17.98;10.70;;;17.20;82.40;;;;;;5081349;28;20036;-79
2022/12/28 11:17:19;;;;;;;17.85;10.55;;;17.30;82.50;;;;;;5095415;28;20047;-78
2022/12/28 11:19:48;;;;;;;15.38;9.68;;;17.40;82.50;;;;;;5077100;28;20043;-78
2022/12/28 11:22:20;;;;;;;14.25;8.82;;;17.60;82.50;;;;;;5095174;28;20438;-78
2022/12/28 11:24:46;;;;;;;15.02;7.47;;;17.70;82.50;;;;;;5095309;28;20107;-79
2022/12/28 11:27:15;;;;;;;16.42;7.35;;;17.80;82.70;;;;;;5077213;28;20076;-80
2022/12/28 11:29:46;;;;;;;16.35;6.53;;;17.90;82.60;;;;;;5076944;28;20032;-79
2022/12/28 11:32:19;;;;;;;17.60;6.35;;;18.00;82.50;;;;;;5095310;28;20075;-78
2022/12/28 11:34:45;;;;;;;10.50;5.13;;;18.10;82.50;;;;;;5095099;28;20472;-77
2022/12/28 11:37:14;;;;;;;11.30;4.88;;;18.10;82.10;;;;;;5095002;28;20024;-79
2022/12/28 11:39:45;;;;;;;10.65;4.78;;;18.30;81.90;;;;;;5077116;28;20123;-78
2022/12/28 11:42:31;;;;;;;9.32;4.30;;;18.40;81.50;;;;;;5095136;28;20090;-79
2022/12/28 11:44:58;;;;;;;13.60;5.00;;;18.50;81.70;;;;;;5094748;28;20043;-78
2022/12/28 11:47:31;;;;;;;10.43;4.40;;;18.50;81.10;;;;;;5094499;28;20036;-78
2022/12/28 11:50:38;;;;;;;11.43;4.18;;;18.60;81.10;;;;;;5076661;28;20056;-79
2022/12/28 11:53:33;;;;;;;10.60;4.88;;;18.60;80.90;;;;;;5093649;28;20028;-79
2022/12/28 11:56:04;;;;;;;9.68;4.40;;;18.70;80.80;;;;;;5085427;28;20123;-81
2022/12/28 11:58:30;;;;;;;13.30;3.97;;;18.70;80.80;;;;;;5076545;28;20060;-79
2022/12/28 12:00:58;;;;;;;8.93;4.65;;;18.80;80.60;;;;;;5094251;28;20083;-78
2022/12/28 12:04:03;;;;;;;9.73;4.10;;;18.90;80.20;;;;;;5076428;28;20063;-79
2022/12/28 12:06:40;;;;;;;12.98;4.85;;;19.00;79.70;;;;;;5011831;28;20522;-80
2022/12/28 12:09:21;;;;;;;10.32;4.32;;;19.00;79.40;;;;;;5012258;28;20558;-77
2022/12/28 12:11:52;;;;;;;11.32;4.57;;;19.10;79.30;;;;;;5065277;28;20036;-79
2022/12/28 12:14:26;;;;;;;10.45;4.55;;;19.10;79.00;;;;;;5094601;28;20035;-80
2022/12/28 12:17:11;;;;;;;9.73;3.92;;;19.20;79.00;;;;;;5094222;28;20107;-79
2022/12/28 12:19:39;;;;;;;8.23;3.75;;;19.30;78.70;;;;;;5094269;28;20028;-79
2022/12/28 12:22:22;;;;;;;9.18;3.90;;;19.30;78.30;;;;;;5075874;28;20433;-79
2022/12/28 12:25:08;;;;;;;7.33;4.37;;;19.30;77.60;;;;;;5075834;28;20119;-78
2022/12/28 12:27:41;;;;;;;11.73;4.68;;;19.20;78.30;;;;;;5075603;28;20296;-79
2022/12/28 12:30:15;;;;;;;;;;;19.00;78.10;;;;;;5076086;28;20044;-79
2022/12/28 12:33:18;;;;;;;9.30;4.50;;;19.00;77.60;;;;;;5093619;28;19904;-80
2022/12/28 12:36:09;;;;;;;9.18;4.38;;;19.10;78.50;;;;;;5012130;28;20064;-77
2022/12/28 12:38:41;;;;;;;9.20;4.22;;;19.00;78.50;;;;;;5069309;28;20094;-78
2022/12/28 12:41:16;;;;;;;14.52;4.40;;;18.90;78.80;;;;;;5094772;28;20046;-78
2022/12/28 12:44:16;;;;;;;12.93;4.90;;;18.90;78.80;;;;;;5094131;28;20498;-79
2022/12/28 12:47:15;;;;;;;10.95;3.80;;;19.00;78.50;;;;;;5094099;28;20392;-79
2022/12/28 12:50:11;;;;;;;11.27;3.80;;;19.20;77.80;;;;;;5075512;28;20028;-80
2022/12/28 12:53:14;;;;;;;7.53;3.58;;;19.40;77.30;;;;;;5093815;28;20046;-80
2022/12/28 12:56:01;;;;;;;11.07;3.80;;;19.60;77.10;;;;;;5075560;28;20036;-80
2022/12/28 12:58:36;;;;;;;15.70;4.20;;;19.60;76.30;;;;;;5093520;28;20030;-78
2022/12/28 13:01:18;;;;;;;10.77;4.03;;;19.60;75.90;;;;;;5075363;28;20123;-79
2022/12/28 13:03:47;;;;;;;8.18;3.95;;;19.60;75.70;;;;;;5093608;28;20107;-79
2022/12/28 13:06:18;;;;;;;9.57;3.60;;;19.60;75.20;;;;;;5075296;28;20455;-79
2022/12/28 13:08:51;;;;;;;11.52;4.13;;;19.60;74.90;;;;;;5093551;28;20032;-78
2022/12/28 13:11:18;;;;;;;11.13;3.88;;;19.60;74.90;;;;;;5074951;28;20052;-82
2022/12/28 13:13:47;;;;;;;10.18;4.00;;;19.50;75.00;;;;;;5075067;28;20028;-79
2022/12/28 13:16:19;;;;;;;11.15;4.20;;;19.50;74.80;;;;;;5093248;28;20032;-80
2022/12/28 13:18:52;;;;;;;10.68;3.47;;;19.40;74.70;;;;;;5093452;28;20028;-79